createdAt,value
2018-08-06T00:00:26.921Z,101926.33
2018-08-06T00:02:55.482Z,101921.55
2018-08-06T00:05:24.277Z,101922.47
2018-08-06T00:07:52.832Z,101921.30
2018-08-06T00:10:22.912Z,101916.33
2018-08-06T00:12:51.354Z,101920.81
2018-08-06T00:15:19.941Z,101913.81
2018-08-06T00:17:48.495Z,101911.72
2018-08-06T00:20:17.069Z,101905.18
2018-08-06T00:22:45.757Z,101907.84
2018-08-06T00:25:15.483Z,101895.88
2018-08-06T00:27:44.465Z,101905.13
2018-08-06T00:30:17.047Z,101896.29
2018-08-06T00:32:46.375Z,101898.97
2018-08-06T00:35:15.365Z,101895.00
2018-08-06T00:37:43.980Z,101893.63
2018-08-06T00:40:15.786Z,101878.98
2018-08-06T00:42:45.196Z,101875.81
2018-08-06T00:45:16.562Z,101880.21
2018-08-06T00:47:45.740Z,101870.86
2018-08-06T00:50:14.321Z,101872.12
2018-08-06T00:52:42.843Z,101875.13
2018-08-06T00:55:14.500Z,101866.63
2018-08-06T00:57:43.927Z,101870.16
2018-08-06T01:00:14.408Z,101856.50
2018-08-06T01:02:43.076Z,101862.23
2018-08-06T01:05:12.723Z,101852.08
2018-08-06T01:07:41.690Z,101845.89
2018-08-06T01:10:12.716Z,101843.64
2018-08-06T01:12:41.368Z,101843.64
2018-08-06T01:15:11.705Z,101849.42
2018-08-06T01:17:40.341Z,101838.28
2018-08-06T01:20:10.740Z,101836.95
2018-08-06T01:22:39.436Z,101828.09
2018-08-06T01:25:08.153Z,101830.77
2018-08-06T01:27:37.216Z,101829.48
2018-08-06T01:30:07.125Z,101824.62
2018-08-06T01:32:35.918Z,101825.52
2018-08-06T01:35:04.853Z,101824.62
2018-08-06T01:37:33.385Z,101821.47
2018-08-06T01:40:01.868Z,101827.00
2018-08-06T01:42:30.287Z,101823.73
2018-08-06T01:44:58.935Z,101831.02
2018-08-06T01:47:27.458Z,101830.03
2018-08-06T01:49:56.019Z,101827.78
2018-08-06T01:52:24.637Z,101829.16
2018-08-06T01:54:53.532Z,101831.36
2018-08-06T01:57:22.264Z,101823.83
2018-08-06T01:59:50.760Z,101820.71
2018-08-06T02:02:19.272Z,101821.05
2018-08-06T02:04:47.935Z,101814.77
2018-08-06T02:07:16.397Z,101817.37
2018-08-06T02:09:44.910Z,101812.95
2018-08-06T02:12:13.543Z,101811.62
2018-08-06T02:14:42.061Z,101799.66
2018-08-06T02:17:10.544Z,101800.39
2018-08-06T02:19:39.064Z,101799.13
2018-08-06T02:22:07.593Z,101795.30
2018-08-06T02:24:36.105Z,101801.01
2018-08-06T02:27:36.558Z,101796.05
2018-08-06T02:30:07.650Z,101792.50
2018-08-06T02:32:49.318Z,101790.42
2018-08-06T02:35:17.833Z,101784.13
2018-08-06T02:37:46.304Z,101788.92
2018-08-06T02:40:17.691Z,101787.89
2018-08-06T02:42:46.647Z,101776.64
2018-08-06T02:45:15.374Z,101780.91
2018-08-06T02:47:43.976Z,101785.28
2018-08-06T02:50:12.938Z,101779.58
2018-08-06T02:52:42.528Z,101773.38
2018-08-06T02:55:12.548Z,101773.78
2018-08-06T02:57:41.080Z,101768.95
2018-08-06T03:00:12.057Z,101769.25
2018-08-06T03:02:41.170Z,101766.61
2018-08-06T03:05:12.270Z,101760.47
2018-08-06T03:07:41.523Z,101760.44
2018-08-06T03:10:10.206Z,101756.12
2018-08-06T03:12:38.805Z,101754.79
2018-08-06T03:15:08.481Z,101756.55
2018-08-06T03:17:37.377Z,101753.81
2018-08-06T03:20:06.653Z,101754.09
2018-08-06T03:22:35.387Z,101760.72
2018-08-06T03:25:03.959Z,101762.05
2018-08-06T03:27:32.632Z,101763.83
2018-08-06T03:30:01.093Z,101765.16
2018-08-06T03:32:30.314Z,101758.47
2018-08-06T03:35:07.397Z,101758.47
2018-08-06T03:37:36.089Z,101758.09
2018-08-06T03:40:05.235Z,101752.42
2018-08-06T03:42:33.807Z,101744.91
2018-08-06T03:45:02.380Z,101743.48
2018-08-06T03:47:30.988Z,101747.47
2018-08-06T03:49:59.535Z,101738.70
2018-08-06T03:52:28.145Z,101734.73
2018-08-06T03:54:56.692Z,101732.05
2018-08-06T03:57:25.208Z,101732.08
2018-08-06T03:59:53.765Z,101728.53
2018-08-06T04:02:22.245Z,101719.66
2018-08-06T04:04:50.659Z,101723.66
2018-08-06T04:07:19.208Z,101718.88
2018-08-06T04:09:47.851Z,101716.63
2018-08-06T04:12:16.477Z,101716.40
2018-08-06T04:14:45.085Z,101722.41
2018-08-06T04:17:20.800Z,101721.98
2018-08-06T04:19:49.366Z,101722.91
2018-08-06T04:22:17.910Z,101717.27
2018-08-06T04:24:46.377Z,101718.99
2018-08-06T04:27:14.933Z,101724.55
2018-08-06T04:29:43.441Z,101717.48
2018-08-06T04:32:12.050Z,101715.39
2018-08-06T04:34:40.496Z,101710.14
2018-08-06T04:37:08.944Z,101707.06
2018-08-06T04:39:37.402Z,101710.14
2018-08-06T04:42:05.955Z,101706.52
2018-08-06T04:44:34.453Z,101713.60
2018-08-06T04:47:02.911Z,101708.91
2018-08-06T04:49:31.377Z,101708.97
2018-08-06T04:51:59.828Z,101708.73
2018-08-06T04:54:28.300Z,101707.20
2018-08-06T04:56:56.724Z,101702.84
2018-08-06T04:59:25.216Z,101703.58
2018-08-06T05:01:53.685Z,101707.52
2018-08-06T05:04:22.282Z,101705.16
2018-08-06T05:06:50.890Z,101692.58
2018-08-06T05:09:21.621Z,101696.74
2018-08-06T05:11:50.577Z,101689.84
2018-08-06T05:14:19.027Z,101689.11
2018-08-06T05:16:47.578Z,101697.73
2018-08-06T05:19:15.998Z,101697.50
2018-08-06T05:21:44.537Z,101701.25
2018-08-06T05:24:13.089Z,101701.03
2018-08-06T05:26:41.569Z,101696.38
2018-08-06T05:29:10.160Z,101698.77
2018-08-06T05:31:38.984Z,101700.23
2018-08-06T05:34:13.029Z,101696.83
2018-08-06T05:36:41.537Z,101696.06
2018-08-06T05:39:10.053Z,101695.73
2018-08-06T05:41:38.612Z,101693.65
2018-08-06T05:44:07.197Z,101696.39
2018-08-06T05:46:35.728Z,101698.23
2018-08-06T05:49:05.004Z,101690.77
2018-08-06T05:51:33.605Z,101691.27
2018-08-06T05:54:33.080Z,101693.52
2018-08-06T05:57:01.690Z,101688.66
2018-08-06T05:59:30.254Z,101690.01
2018-08-06T06:01:58.831Z,101689.59
2018-08-06T06:04:27.419Z,101686.05
2018-08-06T06:06:56.005Z,101687.83
2018-08-06T06:09:24.465Z,101691.43
2018-08-06T06:11:52.985Z,101690.13
2018-08-06T06:14:21.592Z,101696.80
2018-08-06T06:16:50.088Z,101694.58
2018-08-06T06:19:18.708Z,101687.44
2018-08-06T06:21:47.120Z,101680.75
2018-08-06T06:24:15.541Z,101681.63
2018-08-06T06:26:44.069Z,101679.36
2018-08-06T06:29:12.527Z,101680.23
2018-08-06T06:31:41.001Z,101677.97
2018-08-06T06:34:09.528Z,101677.10
2018-08-06T06:36:38.086Z,101677.06
2018-08-06T06:39:09.264Z,101671.66
2018-08-06T06:41:38.123Z,101672.49
2018-08-06T06:44:07.523Z,101667.58
2018-08-06T06:46:35.989Z,101668.86
2018-08-06T06:49:04.614Z,101671.06
2018-08-06T06:51:33.183Z,101663.39
2018-08-06T06:54:01.752Z,101654.87
2018-08-06T06:56:30.287Z,101649.97
2018-08-06T06:58:58.816Z,101660.13
2018-08-06T07:01:27.394Z,101647.13
2018-08-06T07:03:55.983Z,101646.18
2018-08-06T07:06:24.860Z,101648.77
2018-08-06T07:08:53.297Z,101650.02
2018-08-06T07:11:21.859Z,101650.41
2018-08-06T07:13:50.495Z,101647.20
2018-08-06T07:16:45.319Z,101648.45
2018-08-06T07:19:13.926Z,101639.81
2018-08-06T07:21:42.480Z,101638.36
2018-08-06T07:24:10.999Z,101648.98
2018-08-06T07:26:39.597Z,101642.23
2018-08-06T07:29:08.185Z,101638.50
2018-08-06T07:31:36.744Z,101633.87
2018-08-06T07:34:05.359Z,101636.44
2018-08-06T07:36:33.929Z,101633.16
2018-08-06T07:39:02.532Z,101627.56
2018-08-06T07:41:31.092Z,101628.34
2018-08-06T07:43:59.645Z,101628.94
2018-08-06T07:46:28.199Z,101620.48
2018-08-06T07:48:56.713Z,101623.27
2018-08-06T07:51:25.208Z,101618.84
2018-08-06T07:53:53.794Z,101607.27
2018-08-06T07:56:22.383Z,101604.84
2018-08-06T07:58:51.097Z,101599.89
2018-08-06T08:01:19.674Z,101595.06
2018-08-06T08:03:48.236Z,101593.36
2018-08-06T08:06:16.817Z,101599.84
2018-08-06T08:08:45.281Z,101601.82
2018-08-06T08:11:13.786Z,101604.11
2018-08-06T08:13:42.238Z,101598.16
2018-08-06T08:16:10.746Z,101592.56
2018-08-06T08:18:39.364Z,101584.70
2018-08-06T08:21:07.918Z,101585.63
2018-08-06T08:23:36.502Z,101588.02
2018-08-06T08:26:05.127Z,101587.42
2018-08-06T08:28:33.653Z,101592.84
2018-08-06T08:31:02.428Z,101586.14
2018-08-06T08:33:30.936Z,101584.16
2018-08-06T08:35:59.378Z,101581.33
2018-08-06T08:38:27.816Z,101578.60
2018-08-06T08:40:56.582Z,101578.42
2018-08-06T08:43:25.163Z,101575.58
2018-08-06T08:45:53.638Z,101576.55
2018-08-06T08:48:22.177Z,101568.00
2018-08-06T08:50:50.949Z,101566.63
2018-08-06T08:53:19.449Z,101563.13
2018-08-06T08:55:48.000Z,101568.28
2018-08-06T08:58:16.564Z,101564.52
2018-08-06T09:00:45.152Z,101562.73
2018-08-06T09:03:13.736Z,101561.10
2018-08-06T09:05:42.456Z,101560.77
2018-08-06T09:08:10.897Z,101558.38
2018-08-06T09:10:39.517Z,101556.42
2018-08-06T09:13:07.990Z,101547.96
2018-08-06T09:15:36.443Z,101546.27
2018-08-06T09:18:04.947Z,101547.91
2018-08-06T09:20:33.582Z,101548.02
2018-08-06T09:23:02.300Z,101541.19
2018-08-06T09:25:30.754Z,101548.99
2018-08-06T09:27:59.347Z,101543.59
2018-08-06T09:30:27.965Z,101539.13
2018-08-06T09:32:57.556Z,101538.11
2018-08-06T09:35:26.138Z,101536.62
2018-08-06T09:37:54.687Z,101532.06
2018-08-06T09:40:23.942Z,101528.06
2018-08-06T09:42:52.917Z,101528.05
2018-08-06T09:45:22.318Z,101530.05
2018-08-06T09:47:52.245Z,101523.72
2018-08-06T09:50:21.435Z,101512.20
2018-08-06T09:52:51.605Z,101513.48
2018-08-06T09:55:22.468Z,101509.13
2018-08-06T09:57:51.405Z,101511.89
2018-08-06T10:00:26.412Z,101511.73
2018-08-06T10:03:27.077Z,101509.33
2018-08-06T10:05:56.269Z,101500.64
2018-08-06T10:08:24.746Z,101499.45
2018-08-06T10:10:53.206Z,101490.13
2018-08-06T10:13:21.714Z,101481.67
2018-08-06T10:15:50.181Z,101481.97
2018-08-06T10:18:18.693Z,101479.20
2018-08-06T10:20:47.365Z,101469.98
2018-08-06T10:23:15.931Z,101477.16
2018-08-06T10:25:44.616Z,101467.39
2018-08-06T10:28:13.076Z,101468.22
2018-08-06T10:30:42.062Z,101453.55
2018-08-06T10:33:10.469Z,101461.27
2018-08-06T10:35:39.043Z,101455.53
2018-08-06T10:38:07.562Z,101448.73
2018-08-06T10:40:54.836Z,101444.83
2018-08-06T10:43:23.356Z,101444.65
2018-08-06T10:45:51.911Z,101440.97
2018-08-06T10:48:20.715Z,101440.02
2018-08-06T10:50:54.202Z,101437.59
2018-08-06T10:53:22.677Z,101433.78
2018-08-06T10:55:51.227Z,101425.70
2018-08-06T10:58:19.733Z,101423.95
2018-08-06T11:00:48.249Z,101417.16
2018-08-06T11:03:16.803Z,101419.07
2018-08-06T11:05:45.270Z,101419.69
2018-08-06T11:08:13.760Z,101416.05
2018-08-06T11:10:42.240Z,101408.47
2018-08-06T11:13:10.871Z,101405.20
2018-08-06T11:15:39.346Z,101409.04
2018-08-06T11:18:07.919Z,101405.62
2018-08-06T11:20:36.384Z,101398.73
2018-08-06T11:23:05.013Z,101387.53
2018-08-06T11:25:33.568Z,101388.41
2018-08-06T11:28:02.253Z,101382.06
2018-08-06T11:30:30.906Z,101380.52
2018-08-06T11:32:59.462Z,101375.11
2018-08-06T11:35:28.019Z,101371.86
2018-08-06T11:37:56.589Z,101372.08
2018-08-06T11:40:25.167Z,101370.95
2018-08-06T11:42:53.624Z,101366.80
2018-08-06T11:45:22.985Z,101367.57
2018-08-06T11:47:51.730Z,101367.82
2018-08-06T11:50:20.304Z,101360.64
2018-08-06T11:52:48.904Z,101354.53
2018-08-06T11:55:17.363Z,101359.44
2018-08-06T11:57:45.870Z,101354.95
2018-08-06T12:00:18.654Z,101348.70
2018-08-06T12:02:47.241Z,101348.07
2018-08-06T12:05:15.982Z,101348.41
2018-08-06T12:07:44.501Z,101347.74
2018-08-06T12:10:14.797Z,101343.36
2018-08-06T12:12:44.203Z,101343.48
2018-08-06T12:15:14.503Z,101345.03
2018-08-06T12:17:43.265Z,101341.19
2018-08-06T12:20:13.522Z,101340.55
2018-08-06T12:22:43.343Z,101334.36
2018-08-06T12:25:12.843Z,101333.98
2018-08-06T12:27:41.636Z,101338.55
2018-08-06T12:30:19.848Z,101337.05
2018-08-06T12:32:49.359Z,101331.00
2018-08-06T12:35:18.341Z,101330.16
2018-08-06T12:37:47.222Z,101328.20
2018-08-06T12:40:17.055Z,101325.33
2018-08-06T12:42:45.712Z,101330.75
2018-08-06T12:45:15.117Z,101328.67
2018-08-06T12:47:44.224Z,101322.63
2018-08-06T12:50:13.954Z,101323.05
2018-08-06T12:52:43.040Z,101325.05
2018-08-06T12:55:25.115Z,101325.75
2018-08-06T12:57:53.703Z,101318.37
2018-08-06T13:00:24.229Z,101318.06
2018-08-06T13:02:53.397Z,101311.19
2018-08-06T13:05:22.518Z,101311.88
2018-08-06T13:07:51.197Z,101302.13
2018-08-06T13:10:19.793Z,101296.73
2018-08-06T13:12:48.343Z,101293.75
2018-08-06T13:15:17.468Z,101286.98
2018-08-06T13:17:46.120Z,101289.22
2018-08-06T13:20:14.567Z,101286.61
2018-08-06T13:22:43.826Z,101283.63
2018-08-06T13:25:13.247Z,101275.78
2018-08-06T13:27:41.847Z,101274.31
2018-08-06T13:30:13.607Z,101270.59
2018-08-06T13:32:43.167Z,101268.69
2018-08-06T13:35:12.371Z,101267.16
2018-08-06T13:37:40.910Z,101261.88
2018-08-06T13:40:10.073Z,101259.04
2018-08-06T13:42:38.676Z,101264.19
2018-08-06T13:45:09.080Z,101251.84
2018-08-06T13:47:37.667Z,101243.62
2018-08-06T13:50:06.495Z,101247.21
2018-08-06T13:52:35.046Z,101238.84
2018-08-06T13:55:03.628Z,101234.67
2018-08-06T13:57:32.286Z,101237.23
2018-08-06T14:00:00.806Z,101233.33
2018-08-06T14:02:29.346Z,101231.77
2018-08-06T14:04:57.794Z,101234.31
2018-08-06T14:07:26.309Z,101233.01
2018-08-06T14:09:54.868Z,101227.94
2018-08-06T14:12:23.369Z,101218.70
2018-08-06T14:14:52.650Z,101217.37
2018-08-06T14:17:21.098Z,101220.34
2018-08-06T14:19:49.678Z,101215.82
2018-08-06T14:22:18.253Z,101216.36
2018-08-06T14:24:46.833Z,101211.97
2018-08-06T14:27:15.371Z,101206.72
2018-08-06T14:29:43.944Z,101201.11
2018-08-06T14:32:12.594Z,101203.71
2018-08-06T14:34:41.120Z,101198.39
2018-08-06T14:37:09.808Z,101198.31
2018-08-06T14:39:38.398Z,101192.81
2018-08-06T14:42:07.434Z,101191.33
2018-08-06T14:44:35.987Z,101186.84
2018-08-06T14:47:04.604Z,101180.95
2018-08-06T14:49:33.153Z,101181.08
2018-08-06T14:52:01.773Z,101183.59
2018-08-06T14:54:30.240Z,101182.59
2018-08-06T14:56:58.782Z,101176.87
2018-08-06T14:59:27.235Z,101178.11
2018-08-06T15:01:55.763Z,101172.34
2018-08-06T15:04:24.359Z,101173.59
2018-08-06T15:06:52.843Z,101168.85
2018-08-06T15:09:21.426Z,101166.52
2018-08-06T15:11:49.853Z,101168.98
2018-08-06T15:14:18.361Z,101161.62
2018-08-06T15:16:46.806Z,101161.98
2018-08-06T15:19:15.392Z,101163.94
2018-08-06T15:21:43.869Z,101147.89
2018-08-06T15:24:12.291Z,101154.09
2018-08-06T15:26:40.818Z,101150.38
2018-08-06T15:29:09.304Z,101149.64
2018-08-06T15:31:37.870Z,101147.66
2018-08-06T15:34:06.769Z,101146.04
2018-08-06T15:36:35.472Z,101136.70
2018-08-06T15:39:06.149Z,101136.02
2018-08-06T15:41:34.701Z,101137.17
2018-08-06T15:44:03.162Z,101136.75
2018-08-06T15:46:31.778Z,101133.52
2018-08-06T15:49:00.482Z,101127.22
2018-08-06T15:51:29.768Z,101121.47
2018-08-06T15:53:58.323Z,101122.13
2018-08-06T15:56:26.798Z,101128.48
2018-08-06T15:58:55.576Z,101120.23
2018-08-06T16:01:24.172Z,101113.48
2018-08-06T16:03:52.892Z,101114.87
2018-08-06T16:06:21.180Z,101112.50
2018-08-06T16:08:58.105Z,101108.72
2018-08-06T16:11:26.685Z,101108.26
2018-08-06T16:13:55.274Z,101102.92
2018-08-06T16:16:23.764Z,101099.01
2018-08-06T16:18:52.344Z,101098.53
2018-08-06T16:21:20.763Z,101096.80
2018-08-06T16:23:49.309Z,101094.22
2018-08-06T16:26:17.837Z,101090.04
2018-08-06T16:28:46.369Z,101091.06
2018-08-06T16:31:14.846Z,101086.32
2018-08-06T16:33:43.458Z,101086.56
2018-08-06T16:36:11.940Z,101083.44
2018-08-06T16:38:40.505Z,101076.16
2018-08-06T16:41:09.072Z,101077.12
2018-08-06T16:43:37.556Z,101074.98
2018-08-06T16:46:06.157Z,101082.55
2018-08-06T16:48:34.760Z,101069.86
2018-08-06T16:51:03.320Z,101078.33
2018-08-06T16:53:31.910Z,101078.42
2018-08-06T16:56:00.488Z,101079.37
2018-08-06T16:58:28.939Z,101071.65
2018-08-06T17:00:57.640Z,101069.81
2018-08-06T17:03:26.143Z,101069.03
2018-08-06T17:05:54.692Z,101065.13
2018-08-06T17:08:23.272Z,101062.25
2018-08-06T17:10:51.861Z,101063.38
2018-08-06T17:13:33.462Z,101062.10
2018-08-06T17:16:01.978Z,101063.00
2018-08-06T17:18:30.445Z,101062.59
2018-08-06T17:20:58.998Z,101060.70
2018-08-06T17:23:27.449Z,101062.75
2018-08-06T17:25:56.058Z,101063.09
2018-08-06T17:28:24.666Z,101060.10
2018-08-06T17:30:53.255Z,101055.81
2018-08-06T17:33:21.737Z,101055.83
2018-08-06T17:39:14.641Z,101055.56
2018-08-06T17:41:43.255Z,101051.91
2018-08-06T17:44:11.812Z,101053.71
2018-08-06T17:46:40.352Z,101049.64
2018-08-06T17:49:08.852Z,101044.45
2018-08-06T17:52:05.804Z,101046.77
2018-08-06T17:54:34.333Z,101042.30
2018-08-06T17:57:02.817Z,101041.59
2018-08-06T17:59:31.399Z,101044.17
2018-08-06T18:01:59.877Z,101042.91
2018-08-06T18:04:28.511Z,101038.86
2018-08-06T18:06:57.037Z,101032.95
2018-08-06T18:09:25.797Z,101038.59
2018-08-06T18:11:54.512Z,101035.27
2018-08-06T18:14:23.316Z,101042.14
2018-08-06T18:16:51.882Z,101036.13
2018-08-06T18:19:20.449Z,101035.88
2018-08-06T18:21:49.129Z,101035.00
2018-08-06T18:24:53.592Z,101036.08
2018-08-06T18:27:37.499Z,101036.11
2018-08-06T18:30:10.989Z,101035.46
2018-08-06T18:32:39.627Z,101035.88
2018-08-06T18:35:09.427Z,101032.12
2018-08-06T18:37:38.585Z,101035.57
2018-08-06T18:40:08.221Z,101037.84
2018-08-06T18:42:36.830Z,101041.97
2018-08-06T18:45:09.381Z,101042.90
2018-08-06T18:47:38.241Z,101036.27
2018-08-06T18:50:07.789Z,101044.78
2018-08-06T18:52:36.589Z,101040.65
2018-08-06T18:55:06.607Z,101043.53
2018-08-06T18:57:35.246Z,101045.83
2018-08-06T19:00:06.372Z,101044.30
2018-08-06T19:02:57.931Z,101049.45
2018-08-06T19:05:26.586Z,101050.00
2018-08-06T19:07:55.146Z,101052.12
2018-08-06T19:10:23.760Z,101055.04
2018-08-06T19:12:57.601Z,101058.86
2018-08-06T19:15:26.589Z,101059.59
2018-08-06T19:18:00.930Z,101054.45
2018-08-06T19:20:29.529Z,101055.48
2018-08-06T19:22:58.111Z,101056.50
2018-08-06T19:25:27.909Z,101065.19
2018-08-06T19:27:57.277Z,101061.33
2018-08-06T19:30:31.122Z,101063.72
2018-08-06T19:33:00.340Z,101069.64
2018-08-06T19:35:29.409Z,101069.97
2018-08-06T19:37:58.021Z,101070.81
2018-08-06T19:40:26.848Z,101073.39
2018-08-06T19:43:00.663Z,101078.68
2018-08-06T19:45:29.278Z,101078.31
2018-08-06T19:47:57.894Z,101080.23
2018-08-06T19:57:13.161Z,101079.69
2018-08-06T19:59:41.808Z,101079.61
2018-08-06T20:02:10.421Z,101080.28
2018-08-06T20:04:38.913Z,101080.00
2018-08-06T20:07:07.652Z,101082.92
2018-08-06T20:09:36.248Z,101090.67
2018-08-06T20:12:04.991Z,101088.13
2018-08-06T20:14:33.597Z,101082.55
2018-08-06T20:17:02.177Z,101083.47
2018-08-06T20:19:30.979Z,101080.95
2018-08-06T20:21:59.575Z,101086.05
2018-08-06T20:24:28.079Z,101087.23
2018-08-06T20:26:56.599Z,101097.19
2018-08-06T20:29:25.223Z,101096.69
2018-08-06T20:31:53.952Z,101094.08
2018-08-06T20:34:22.714Z,101088.03
2018-08-06T20:36:51.259Z,101083.79
2018-08-06T20:39:19.861Z,101087.10
2018-08-06T20:41:48.463Z,101086.84
2018-08-06T20:44:17.075Z,101089.70
2018-08-06T20:46:45.644Z,101092.92
2018-08-06T20:49:14.174Z,101094.92
2018-08-06T20:51:42.795Z,101091.59
2018-08-06T20:54:11.362Z,101092.63
2018-08-06T20:56:40.068Z,101093.31
2018-08-06T20:59:08.574Z,101090.43
2018-08-06T21:01:37.346Z,101098.17
2018-08-06T21:04:06.273Z,101097.02
2018-08-06T21:06:34.809Z,101096.69
2018-08-06T21:09:03.575Z,101101.25
2018-08-06T21:11:32.075Z,101096.73
2018-08-06T21:14:00.764Z,101089.70
2018-08-06T21:16:29.302Z,101096.58
2018-08-06T21:18:57.944Z,101097.02
2018-08-06T21:21:26.484Z,101102.19
2018-08-06T21:23:55.277Z,101100.03
2018-08-06T21:26:25.235Z,101102.32
2018-08-06T21:28:53.767Z,101099.70
2018-08-06T21:31:22.336Z,101096.17
2018-08-06T21:33:50.948Z,101099.53
2018-08-06T21:36:19.531Z,101097.56
2018-08-06T21:38:48.096Z,101094.00
2018-08-06T21:41:16.729Z,101092.66
2018-08-06T21:43:45.313Z,101095.26
2018-08-06T21:46:13.869Z,101097.11
2018-08-06T21:48:42.573Z,101091.41
2018-08-06T21:51:11.187Z,101090.62
2018-08-06T21:53:39.740Z,101091.19
2018-08-06T21:56:08.454Z,101087.31
2018-08-06T21:58:37.008Z,101090.05
2018-08-06T22:01:05.603Z,101085.89
2018-08-06T22:03:34.170Z,101087.69
2018-08-06T22:06:02.677Z,101086.06
2018-08-06T22:08:31.251Z,101096.89
2018-08-06T22:11:00.024Z,101089.42
2018-08-06T22:13:28.561Z,101081.92
2018-08-06T22:15:57.196Z,101085.56
2018-08-06T22:18:25.916Z,101084.36
2018-08-06T22:20:54.441Z,101083.63
2018-08-06T22:23:22.942Z,101083.33
2018-08-06T22:25:51.540Z,101082.88
2018-08-06T22:28:20.104Z,101086.03
2018-08-06T22:30:48.833Z,101083.80
2018-08-06T22:33:22.398Z,101075.77
2018-08-06T22:35:50.957Z,101083.69
2018-08-06T22:38:19.595Z,101077.42
2018-08-06T22:40:48.313Z,101071.30
2018-08-06T22:43:16.896Z,101068.32
2018-08-06T22:45:45.520Z,101068.38
2018-08-06T22:48:14.118Z,101071.09
2018-08-06T22:50:42.821Z,101076.02
2018-08-06T22:53:34.450Z,101068.92
2018-08-06T22:56:07.017Z,101070.33
2018-08-06T22:58:35.539Z,101066.39
2018-08-06T23:01:04.302Z,101064.67
2018-08-06T23:03:33.077Z,101066.96
2018-08-06T23:06:01.668Z,101060.81
2018-08-06T23:08:30.266Z,101057.36
2018-08-06T23:10:58.866Z,101052.97
2018-08-06T23:13:27.487Z,101052.08
2018-08-06T23:15:56.078Z,101049.50
2018-08-06T23:18:24.638Z,101047.81
2018-08-06T23:20:54.151Z,101043.42
2018-08-06T23:23:31.104Z,101039.88
2018-08-06T23:25:59.670Z,101042.17
2018-08-06T23:28:28.216Z,101047.27
2018-08-06T23:30:56.801Z,101049.23
2018-08-06T23:33:25.358Z,101054.68
2018-08-06T23:35:53.898Z,101051.11
2018-08-06T23:38:22.560Z,101048.40
2018-08-06T23:40:51.096Z,101051.50
2018-08-06T23:43:19.692Z,101047.06
2018-08-06T23:45:48.201Z,101052.08
2018-08-06T23:48:16.757Z,101041.52
2018-08-06T23:50:45.351Z,101045.52
2018-08-06T23:53:13.897Z,101045.11
2018-08-06T23:55:42.443Z,101046.95
2018-08-06T23:58:11.060Z,101049.77
